sensor_id;sensor_type;location;lat;lon;timestamp;P1;durP1;ratioP1;P2;durP2;ratioP2
16015;SDS011;8112;53.592;10.184;2023-04-03T00:00:35;3.53;;;2.30;;
16015;SDS011;8112;53.592;10.184;2023-04-03T00:05:37;4.67;;;2.20;;
16015;SDS011;8112;53.592;10.184;2023-04-03T00:10:39;7.83;;;2.70;;
16015;SDS011;8112;53.592;10.184;2023-04-03T00:15:43;2.93;;;2.17;;
16015;SDS011;8112;53.592;10.184;2023-04-03T00:20:45;6.40;;;2.73;;
16015;SDS011;8112;53.592;10.184;2023-04-03T00:25:48;4.97;;;2.50;;
16015;SDS011;8112;53.592;10.184;2023-04-03T00:30:51;4.07;;;2.27;;
16015;SDS011;8112;53.592;10.184;2023-04-03T00:35:54;5.73;;;2.23;;
16015;SDS011;8112;53.592;10.184;2023-04-03T00:40:57;8.03;;;2.40;;
16015;SDS011;8112;53.592;10.184;2023-04-03T00:46:00;5.20;;;2.43;;
16015;SDS011;8112;53.592;10.184;2023-04-03T00:51:02;5.23;;;2.27;;
16015;SDS011;8112;53.592;10.184;2023-04-03T00:56:08;4.90;;;2.53;;
16015;SDS011;8112;53.592;10.184;2023-04-03T01:01:16;4.53;;;2.53;;
16015;SDS011;8112;53.592;10.184;2023-04-03T01:06:23;4.83;;;3.03;;
16015;SDS011;8112;53.592;10.184;2023-04-03T01:11:27;4.20;;;2.33;;
16015;SDS011;8112;53.592;10.184;2023-04-03T01:16:31;4.67;;;2.50;;
16015;SDS011;8112;53.592;10.184;2023-04-03T01:21:41;5.47;;;2.73;;
16015;SDS011;8112;53.592;10.184;2023-04-03T01:27:04;9.20;;;2.80;;
16015;SDS011;8112;53.592;10.184;2023-04-03T01:32:09;12.00;;;3.23;;
16015;SDS011;8112;53.592;10.184;2023-04-03T01:37:12;5.13;;;2.47;;
16015;SDS011;8112;53.592;10.184;2023-04-03T01:42:14;3.57;;;2.40;;
16015;SDS011;8112;53.592;10.184;2023-04-03T01:47:19;4.83;;;2.50;;
16015;SDS011;8112;53.592;10.184;2023-04-03T01:52:21;2.97;;;2.33;;
16015;SDS011;8112;53.592;10.184;2023-04-03T01:57:25;6.03;;;2.57;;
16015;SDS011;8112;53.592;10.184;2023-04-03T02:02:29;3.60;;;2.30;;
16015;SDS011;8112;53.592;10.184;2023-04-03T02:07:32;6.53;;;2.87;;
16015;SDS011;8112;53.592;10.184;2023-04-03T02:12:35;3.90;;;2.50;;
16015;SDS011;8112;53.592;10.184;2023-04-03T02:17:41;7.90;;;2.70;;
16015;SDS011;8112;53.592;10.184;2023-04-03T02:22:43;6.63;;;3.10;;
16015;SDS011;8112;53.592;10.184;2023-04-03T02:27:45;5.17;;;2.67;;
16015;SDS011;8112;53.592;10.184;2023-04-03T02:32:50;3.83;;;2.33;;
16015;SDS011;8112;53.592;10.184;2023-04-03T02:37:53;5.07;;;3.13;;
16015;SDS011;8112;53.592;10.184;2023-04-03T02:42:57;6.13;;;2.87;;
16015;SDS011;8112;53.592;10.184;2023-04-03T02:48:01;4.27;;;2.50;;
16015;SDS011;8112;53.592;10.184;2023-04-03T02:53:03;4.60;;;2.90;;
16015;SDS011;8112;53.592;10.184;2023-04-03T02:58:06;4.43;;;2.80;;
16015;SDS011;8112;53.592;10.184;2023-04-03T03:03:09;5.03;;;2.97;;
16015;SDS011;8112;53.592;10.184;2023-04-03T03:08:12;3.57;;;2.50;;
16015;SDS011;8112;53.592;10.184;2023-04-03T03:13:14;4.40;;;2.83;;
16015;SDS011;8112;53.592;10.184;2023-04-03T03:18:18;4.20;;;2.87;;
16015;SDS011;8112;53.592;10.184;2023-04-03T03:23:21;6.50;;;3.27;;
16015;SDS011;8112;53.592;10.184;2023-04-03T03:28:23;5.37;;;3.10;;
16015;SDS011;8112;53.592;10.184;2023-04-03T03:33:27;5.90;;;3.07;;
16015;SDS011;8112;53.592;10.184;2023-04-03T03:38:29;6.00;;;3.20;;
16015;SDS011;8112;53.592;10.184;2023-04-03T03:43:36;5.10;;;3.13;;
16015;SDS011;8112;53.592;10.184;2023-04-03T03:48:41;4.43;;;2.90;;
16015;SDS011;8112;53.592;10.184;2023-04-03T03:53:43;4.17;;;3.20;;
16015;SDS011;8112;53.592;10.184;2023-04-03T03:58:50;6.60;;;3.27;;
16015;SDS011;8112;53.592;10.184;2023-04-03T04:03:54;5.17;;;4.07;;
16015;SDS011;8112;53.592;10.184;2023-04-03T04:09:00;7.50;;;4.77;;
16015;SDS011;8112;53.592;10.184;2023-04-03T04:14:03;5.50;;;3.50;;
16015;SDS011;8112;53.592;10.184;2023-04-03T04:19:07;4.27;;;3.43;;
16015;SDS011;8112;53.592;10.184;2023-04-03T04:24:11;6.73;;;3.63;;
16015;SDS011;8112;53.592;10.184;2023-04-03T04:29:13;5.90;;;3.73;;
16015;SDS011;8112;53.592;10.184;2023-04-03T04:34:22;8.63;;;3.60;;
16015;SDS011;8112;53.592;10.184;2023-04-03T04:39:24;11.07;;;3.50;;
16015;SDS011;8112;53.592;10.184;2023-04-03T04:44:29;5.50;;;3.50;;
16015;SDS011;8112;53.592;10.184;2023-04-03T04:49:33;4.93;;;3.47;;
16015;SDS011;8112;53.592;10.184;2023-04-03T04:54:35;6.63;;;3.97;;
16015;SDS011;8112;53.592;10.184;2023-04-03T04:59:42;8.63;;;4.90;;
16015;SDS011;8112;53.592;10.184;2023-04-03T05:04:47;6.47;;;4.50;;
16015;SDS011;8112;53.592;10.184;2023-04-03T05:09:54;6.70;;;4.17;;
16015;SDS011;8112;53.592;10.184;2023-04-03T05:14:58;5.77;;;3.87;;
16015;SDS011;8112;53.592;10.184;2023-04-03T05:20:04;8.87;;;3.90;;
16015;SDS011;8112;53.592;10.184;2023-04-03T05:25:08;5.80;;;4.47;;
16015;SDS011;8112;53.592;10.184;2023-04-03T05:30:12;6.50;;;3.83;;
16015;SDS011;8112;53.592;10.184;2023-04-03T05:35:20;9.27;;;4.23;;
16015;SDS011;8112;53.592;10.184;2023-04-03T05:40:25;9.40;;;4.37;;
16015;SDS011;8112;53.592;10.184;2023-04-03T05:45:30;9.90;;;5.07;;
16015;SDS011;8112;53.592;10.184;2023-04-03T05:50:34;6.10;;;4.10;;
16015;SDS011;8112;53.592;10.184;2023-04-03T05:55:42;7.33;;;4.20;;
16015;SDS011;8112;53.592;10.184;2023-04-03T06:00:44;5.63;;;4.20;;
16015;SDS011;8112;53.592;10.184;2023-04-03T06:05:48;8.30;;;3.93;;
16015;SDS011;8112;53.592;10.184;2023-04-03T06:10:50;7.20;;;3.30;;
16015;SDS011;8112;53.592;10.184;2023-04-03T06:15:54;4.63;;;2.97;;
16015;SDS011;8112;53.592;10.184;2023-04-03T06:20:58;9.53;;;3.47;;
16015;SDS011;8112;53.592;10.184;2023-04-03T06:26:01;5.90;;;3.20;;
16015;SDS011;8112;53.592;10.184;2023-04-03T06:31:03;7.47;;;3.30;;
16015;SDS011;8112;53.592;10.184;2023-04-03T06:36:09;5.63;;;2.70;;
16015;SDS011;8112;53.592;10.184;2023-04-03T06:41:16;3.77;;;2.63;;
16015;SDS011;8112;53.592;10.184;2023-04-03T06:46:19;5.57;;;3.53;;
16015;SDS011;8112;53.592;10.184;2023-04-03T06:51:27;5.17;;;2.53;;
16015;SDS011;8112;53.592;10.184;2023-04-03T06:56:30;5.07;;;2.30;;
16015;SDS011;8112;53.592;10.184;2023-04-03T07:01:33;4.30;;;1.90;;
16015;SDS011;8112;53.592;10.184;2023-04-03T07:06:36;8.27;;;3.27;;
16015;SDS011;8112;53.592;10.184;2023-04-03T07:11:38;5.63;;;2.97;;
16015;SDS011;8112;53.592;10.184;2023-04-03T07:16:40;3.30;;;2.00;;
16015;SDS011;8112;53.592;10.184;2023-04-03T07:21:44;3.77;;;2.33;;
16015;SDS011;8112;53.592;10.184;2023-04-03T07:26:48;3.60;;;1.67;;
16015;SDS011;8112;53.592;10.184;2023-04-03T07:31:51;2.87;;;1.80;;
16015;SDS011;8112;53.592;10.184;2023-04-03T07:36:54;3.87;;;2.40;;
16015;SDS011;8112;53.592;10.184;2023-04-03T07:41:56;3.90;;;1.83;;
16015;SDS011;8112;53.592;10.184;2023-04-03T07:46:59;5.00;;;2.33;;
16015;SDS011;8112;53.592;10.184;2023-04-03T07:52:02;1.63;;;1.33;;
16015;SDS011;8112;53.592;10.184;2023-04-03T07:57:05;3.10;;;1.77;;
16015;SDS011;8112;53.592;10.184;2023-04-03T08:02:08;1.50;;;1.40;;
16015;SDS011;8112;53.592;10.184;2023-04-03T08:07:12;2.47;;;1.67;;
16015;SDS011;8112;53.592;10.184;2023-04-03T08:12:13;5.80;;;1.60;;
16015;SDS011;8112;53.592;10.184;2023-04-03T08:17:15;3.93;;;1.50;;
16015;SDS011;8112;53.592;10.184;2023-04-03T08:22:22;1.97;;;1.30;;
16015;SDS011;8112;53.592;10.184;2023-04-03T08:27:24;3.70;;;1.97;;
16015;SDS011;8112;53.592;10.184;2023-04-03T08:32:28;1.97;;;1.17;;
16015;SDS011;8112;53.592;10.184;2023-04-03T08:37:34;4.37;;;1.57;;
16015;SDS011;8112;53.592;10.184;2023-04-03T08:42:40;2.10;;;1.30;;
16015;SDS011;8112;53.592;10.184;2023-04-03T08:47:50;7.17;;;3.87;;
16015;SDS011;8112;53.592;10.184;2023-04-03T08:52:59;3.53;;;1.47;;
16015;SDS011;8112;53.592;10.184;2023-04-03T08:58:05;1.70;;;1.07;;
16015;SDS011;8112;53.592;10.184;2023-04-03T09:03:11;1.30;;;1.17;;
16015;SDS011;8112;53.592;10.184;2023-04-03T09:08:18;3.83;;;1.00;;
16015;SDS011;8112;53.592;10.184;2023-04-03T09:13:24;2.43;;;1.20;;
16015;SDS011;8112;53.592;10.184;2023-04-03T09:18:32;1.37;;;0.93;;
16015;SDS011;8112;53.592;10.184;2023-04-03T09:23:45;2.70;;;1.13;;
16015;SDS011;8112;53.592;10.184;2023-04-03T09:28:49;1.40;;;1.10;;
16015;SDS011;8112;53.592;10.184;2023-04-03T09:33:52;2.00;;;0.90;;
16015;SDS011;8112;53.592;10.184;2023-04-03T09:39:04;2.53;;;1.27;;
16015;SDS011;8112;53.592;10.184;2023-04-03T09:44:17;2.70;;;1.00;;
16015;SDS011;8112;53.592;10.184;2023-04-03T09:49:23;2.47;;;1.23;;
16015;SDS011;8112;53.592;10.184;2023-04-03T09:54:36;2.13;;;1.33;;
16015;SDS011;8112;53.592;10.184;2023-04-03T09:59:42;1.83;;;1.20;;
16015;SDS011;8112;53.592;10.184;2023-04-03T10:04:47;3.90;;;1.30;;
16015;SDS011;8112;53.592;10.184;2023-04-03T10:09:55;1.13;;;1.00;;
16015;SDS011;8112;53.592;10.184;2023-04-03T10:14:58;2.23;;;1.20;;
16015;SDS011;8112;53.592;10.184;2023-04-03T10:20:02;4.40;;;1.00;;
16015;SDS011;8112;53.592;10.184;2023-04-03T10:25:15;2.17;;;0.97;;
16015;SDS011;8112;53.592;10.184;2023-04-03T10:30:31;3.07;;;1.50;;
16015;SDS011;8112;53.592;10.184;2023-04-03T10:35:44;1.93;;;1.27;;
16015;SDS011;8112;53.592;10.184;2023-04-03T10:40:57;1.90;;;0.97;;
16015;SDS011;8112;53.592;10.184;2023-04-03T10:46:07;1.93;;;1.00;;
16015;SDS011;8112;53.592;10.184;2023-04-03T10:51:20;3.47;;;1.07;;
16015;SDS011;8112;53.592;10.184;2023-04-03T10:56:31;2.73;;;1.30;;
16015;SDS011;8112;53.592;10.184;2023-04-03T11:01:38;1.93;;;1.20;;
16015;SDS011;8112;53.592;10.184;2023-04-03T11:06:44;0.93;;;0.80;;
16015;SDS011;8112;53.592;10.184;2023-04-03T11:11:55;1.37;;;0.90;;
16015;SDS011;8112;53.592;10.184;2023-04-03T11:17:05;1.73;;;1.10;;
16015;SDS011;8112;53.592;10.184;2023-04-03T11:22:16;2.53;;;1.00;;
16015;SDS011;8112;53.592;10.184;2023-04-03T11:27:25;1.87;;;0.90;;
16015;SDS011;8112;53.592;10.184;2023-04-03T11:32:42;1.10;;;0.70;;
16015;SDS011;8112;53.592;10.184;2023-04-03T11:38:00;3.57;;;1.20;;
16015;SDS011;8112;53.592;10.184;2023-04-03T11:43:16;2.90;;;0.77;;
16015;SDS011;8112;53.592;10.184;2023-04-03T11:53:49;2.77;;;0.77;;
16015;SDS011;8112;53.592;10.184;2023-04-03T12:04:27;2.20;;;0.90;;
16015;SDS011;8112;53.592;10.184;2023-04-03T12:09:34;1.80;;;0.80;;
16015;SDS011;8112;53.592;10.184;2023-04-03T12:14:57;1.53;;;0.80;;
16015;SDS011;8112;53.592;10.184;2023-04-03T12:26:03;7.33;;;3.50;;
16015;SDS011;8112;53.592;10.184;2023-04-03T12:31:23;1.20;;;0.83;;
16015;SDS011;8112;53.592;10.184;2023-04-03T12:36:36;1.33;;;0.67;;
16015;SDS011;8112;53.592;10.184;2023-04-03T12:41:46;2.03;;;0.87;;
16015;SDS011;8112;53.592;10.184;2023-04-03T12:47:00;2.27;;;0.90;;
16015;SDS011;8112;53.592;10.184;2023-04-03T12:52:04;4.10;;;0.93;;
16015;SDS011;8112;53.592;10.184;2023-04-03T12:57:20;2.73;;;0.90;;
16015;SDS011;8112;53.592;10.184;2023-04-03T13:02:28;2.20;;;1.10;;
16015;SDS011;8112;53.592;10.184;2023-04-03T13:07:32;1.00;;;0.77;;
16015;SDS011;8112;53.592;10.184;2023-04-03T13:12:45;1.00;;;0.80;;
16015;SDS011;8112;53.592;10.184;2023-04-03T13:17:50;3.20;;;0.90;;
16015;SDS011;8112;53.592;10.184;2023-04-03T13:22:54;1.90;;;0.70;;
16015;SDS011;8112;53.592;10.184;2023-04-03T13:28:02;2.67;;;0.93;;
16015;SDS011;8112;53.592;10.184;2023-04-03T13:33:17;1.50;;;0.80;;
16015;SDS011;8112;53.592;10.184;2023-04-03T13:38:23;1.80;;;0.80;;
16015;SDS011;8112;53.592;10.184;2023-04-03T13:43:27;2.10;;;1.00;;
16015;SDS011;8112;53.592;10.184;2023-04-03T13:48:36;1.73;;;0.90;;
16015;SDS011;8112;53.592;10.184;2023-04-03T13:53:41;2.03;;;1.10;;
16015;SDS011;8112;53.592;10.184;2023-04-03T13:58:52;3.23;;;1.17;;
16015;SDS011;8112;53.592;10.184;2023-04-03T14:04:00;1.77;;;1.00;;
16015;SDS011;8112;53.592;10.184;2023-04-03T14:09:12;1.00;;;0.77;;
16015;SDS011;8112;53.592;10.184;2023-04-03T14:14:17;2.93;;;0.80;;
16015;SDS011;8112;53.592;10.184;2023-04-03T14:19:23;2.43;;;0.90;;
16015;SDS011;8112;53.592;10.184;2023-04-03T14:24:26;2.47;;;0.90;;
16015;SDS011;8112;53.592;10.184;2023-04-03T14:29:30;1.57;;;0.80;;
16015;SDS011;8112;53.592;10.184;2023-04-03T14:34:33;1.03;;;0.70;;
16015;SDS011;8112;53.592;10.184;2023-04-03T14:39:35;3.17;;;1.17;;
16015;SDS011;8112;53.592;10.184;2023-04-03T14:44:37;4.17;;;1.13;;
16015;SDS011;8112;53.592;10.184;2023-04-03T14:49:42;4.40;;;1.07;;
16015;SDS011;8112;53.592;10.184;2023-04-03T14:54:44;1.23;;;0.90;;
16015;SDS011;8112;53.592;10.184;2023-04-03T14:59:46;1.20;;;0.90;;
16015;SDS011;8112;53.592;10.184;2023-04-03T15:04:49;2.07;;;1.30;;
16015;SDS011;8112;53.592;10.184;2023-04-03T15:09:51;2.87;;;1.40;;
16015;SDS011;8112;53.592;10.184;2023-04-03T15:14:56;1.93;;;1.07;;
16015;SDS011;8112;53.592;10.184;2023-04-03T15:19:59;2.20;;;0.90;;
16015;SDS011;8112;53.592;10.184;2023-04-03T15:25:01;2.00;;;1.07;;
16015;SDS011;8112;53.592;10.184;2023-04-03T15:30:04;1.40;;;1.10;;
16015;SDS011;8112;53.592;10.184;2023-04-03T15:35:09;1.87;;;1.00;;
16015;SDS011;8112;53.592;10.184;2023-04-03T15:40:12;2.67;;;1.13;;
16015;SDS011;8112;53.592;10.184;2023-04-03T15:45:15;1.97;;;1.10;;
16015;SDS011;8112;53.592;10.184;2023-04-03T15:50:18;2.43;;;1.30;;
16015;SDS011;8112;53.592;10.184;2023-04-03T15:55:22;2.17;;;1.00;;
16015;SDS011;8112;53.592;10.184;2023-04-03T16:00:25;3.07;;;1.23;;
16015;SDS011;8112;53.592;10.184;2023-04-03T16:05:29;1.50;;;0.90;;
16015;SDS011;8112;53.592;10.184;2023-04-03T16:10:32;3.70;;;1.20;;
16015;SDS011;8112;53.592;10.184;2023-04-03T16:15:34;4.43;;;1.67;;
16015;SDS011;8112;53.592;10.184;2023-04-03T16:20:38;2.33;;;1.20;;
16015;SDS011;8112;53.592;10.184;2023-04-03T16:25:40;3.80;;;1.30;;
16015;SDS011;8112;53.592;10.184;2023-04-03T16:30:46;3.30;;;1.40;;
16015;SDS011;8112;53.592;10.184;2023-04-03T16:35:50;3.03;;;1.60;;
16015;SDS011;8112;53.592;10.184;2023-04-03T16:40:52;1.37;;;1.20;;
16015;SDS011;8112;53.592;10.184;2023-04-03T16:45:57;4.00;;;1.73;;
16015;SDS011;8112;53.592;10.184;2023-04-03T16:51:00;3.40;;;1.30;;
16015;SDS011;8112;53.592;10.184;2023-04-03T16:56:02;2.80;;;1.27;;
16015;SDS011;8112;53.592;10.184;2023-04-03T17:01:08;2.43;;;1.50;;
16015;SDS011;8112;53.592;10.184;2023-04-03T17:06:15;3.70;;;1.50;;
16015;SDS011;8112;53.592;10.184;2023-04-03T17:11:19;1.97;;;1.77;;
16015;SDS011;8112;53.592;10.184;2023-04-03T17:16:21;2.00;;;1.50;;
16015;SDS011;8112;53.592;10.184;2023-04-03T17:21:26;2.47;;;1.57;;
16015;SDS011;8112;53.592;10.184;2023-04-03T17:26:28;6.90;;;1.60;;
16015;SDS011;8112;53.592;10.184;2023-04-03T17:31:30;2.50;;;1.53;;
16015;SDS011;8112;53.592;10.184;2023-04-03T17:36:35;1.60;;;1.27;;
16015;SDS011;8112;53.592;10.184;2023-04-03T17:41:37;2.00;;;1.80;;
16015;SDS011;8112;53.592;10.184;2023-04-03T17:46:39;3.30;;;1.47;;
16015;SDS011;8112;53.592;10.184;2023-04-03T17:51:42;6.17;;;1.77;;
16015;SDS011;8112;53.592;10.184;2023-04-03T17:56:45;1.93;;;1.50;;
16015;SDS011;8112;53.592;10.184;2023-04-03T18:01:47;2.07;;;1.40;;
16015;SDS011;8112;53.592;10.184;2023-04-03T18:06:52;3.03;;;1.70;;
16015;SDS011;8112;53.592;10.184;2023-04-03T18:11:55;4.00;;;1.70;;
16015;SDS011;8112;53.592;10.184;2023-04-03T18:17:03;7.60;;;3.60;;
16015;SDS011;8112;53.592;10.184;2023-04-03T18:22:07;7.93;;;4.57;;
16015;SDS011;8112;53.592;10.184;2023-04-03T18:27:15;5.27;;;2.20;;
16015;SDS011;8112;53.592;10.184;2023-04-03T18:32:20;2.73;;;1.57;;
16015;SDS011;8112;53.592;10.184;2023-04-03T18:37:24;2.67;;;1.60;;
16015;SDS011;8112;53.592;10.184;2023-04-03T18:42:27;2.50;;;1.40;;
16015;SDS011;8112;53.592;10.184;2023-04-03T18:47:29;3.47;;;2.00;;
16015;SDS011;8112;53.592;10.184;2023-04-03T18:52:33;4.17;;;1.60;;
16015;SDS011;8112;53.592;10.184;2023-04-03T18:57:35;7.40;;;2.20;;
16015;SDS011;8112;53.592;10.184;2023-04-03T19:02:37;2.07;;;1.70;;
16015;SDS011;8112;53.592;10.184;2023-04-03T19:07:41;4.73;;;1.90;;
16015;SDS011;8112;53.592;10.184;2023-04-03T19:12:45;2.37;;;1.87;;
16015;SDS011;8112;53.592;10.184;2023-04-03T19:17:49;3.63;;;1.87;;
16015;SDS011;8112;53.592;10.184;2023-04-03T19:22:55;5.23;;;1.80;;
16015;SDS011;8112;53.592;10.184;2023-04-03T19:27:57;2.10;;;1.40;;
16015;SDS011;8112;53.592;10.184;2023-04-03T19:32:59;5.33;;;1.97;;
16015;SDS011;8112;53.592;10.184;2023-04-03T19:38:03;4.47;;;2.13;;
16015;SDS011;8112;53.592;10.184;2023-04-03T19:43:06;4.73;;;2.03;;
16015;SDS011;8112;53.592;10.184;2023-04-03T19:48:08;2.00;;;1.80;;
16015;SDS011;8112;53.592;10.184;2023-04-03T19:53:12;3.47;;;1.90;;
16015;SDS011;8112;53.592;10.184;2023-04-03T19:58:18;3.63;;;2.27;;
16015;SDS011;8112;53.592;10.184;2023-04-03T20:03:20;2.13;;;1.90;;
16015;SDS011;8112;53.592;10.184;2023-04-03T20:08:23;3.57;;;2.20;;
16015;SDS011;8112;53.592;10.184;2023-04-03T20:13:27;4.47;;;2.10;;
16015;SDS011;8112;53.592;10.184;2023-04-03T20:18:29;4.27;;;2.50;;
16015;SDS011;8112;53.592;10.184;2023-04-03T20:23:33;2.73;;;1.50;;
16015;SDS011;8112;53.592;10.184;2023-04-03T20:28:36;2.43;;;2.23;;
16015;SDS011;8112;53.592;10.184;2023-04-03T20:33:38;4.23;;;2.13;;
16015;SDS011;8112;53.592;10.184;2023-04-03T20:38:41;3.27;;;1.90;;
16015;SDS011;8112;53.592;10.184;2023-04-03T20:43:43;2.70;;;1.90;;
16015;SDS011;8112;53.592;10.184;2023-04-03T20:48:47;2.20;;;1.67;;
16015;SDS011;8112;53.592;10.184;2023-04-03T20:53:50;4.63;;;2.73;;
16015;SDS011;8112;53.592;10.184;2023-04-03T20:58:54;10.00;;;5.40;;
16015;SDS011;8112;53.592;10.184;2023-04-03T21:03:59;14.20;;;7.03;;
16015;SDS011;8112;53.592;10.184;2023-04-03T21:20:26;12.13;;;6.40;;
16015;SDS011;8112;53.592;10.184;2023-04-03T21:25:28;10.10;;;5.10;;
16015;SDS011;8112;53.592;10.184;2023-04-03T21:30:30;6.13;;;2.80;;
16015;SDS011;8112;53.592;10.184;2023-04-03T21:35:33;7.17;;;2.80;;
16015;SDS011;8112;53.592;10.184;2023-04-03T21:40:35;3.10;;;2.03;;
16015;SDS011;8112;53.592;10.184;2023-04-03T21:45:37;3.20;;;2.07;;
16015;SDS011;8112;53.592;10.184;2023-04-03T21:50:41;3.67;;;2.70;;
16015;SDS011;8112;53.592;10.184;2023-04-03T21:55:51;4.63;;;2.73;;
16015;SDS011;8112;53.592;10.184;2023-04-03T22:00:53;4.80;;;2.70;;
16015;SDS011;8112;53.592;10.184;2023-04-03T22:05:58;6.93;;;2.57;;
16015;SDS011;8112;53.592;10.184;2023-04-03T22:11:02;3.53;;;2.30;;
16015;SDS011;8112;53.592;10.184;2023-04-03T22:16:05;6.00;;;2.13;;
16015;SDS011;8112;53.592;10.184;2023-04-03T22:21:09;3.07;;;1.87;;
16015;SDS011;8112;53.592;10.184;2023-04-03T22:26:11;3.40;;;1.70;;
16015;SDS011;8112;53.592;10.184;2023-04-03T22:31:14;2.60;;;2.03;;
16015;SDS011;8112;53.592;10.184;2023-04-03T22:36:18;4.80;;;2.00;;
16015;SDS011;8112;53.592;10.184;2023-04-03T22:41:19;2.37;;;1.87;;
16015;SDS011;8112;53.592;10.184;2023-04-03T22:46:21;4.97;;;3.37;;
16015;SDS011;8112;53.592;10.184;2023-04-03T22:51:26;4.10;;;2.03;;
16015;SDS011;8112;53.592;10.184;2023-04-03T22:56:28;4.20;;;2.27;;
16015;SDS011;8112;53.592;10.184;2023-04-03T23:01:35;2.23;;;1.97;;
16015;SDS011;8112;53.592;10.184;2023-04-03T23:06:38;3.80;;;2.40;;
16015;SDS011;8112;53.592;10.184;2023-04-03T23:11:40;2.47;;;1.87;;
16015;SDS011;8112;53.592;10.184;2023-04-03T23:16:42;3.23;;;2.23;;
16015;SDS011;8112;53.592;10.184;2023-04-03T23:21:47;3.47;;;2.30;;
16015;SDS011;8112;53.592;10.184;2023-04-03T23:26:49;3.60;;;2.20;;
16015;SDS011;8112;53.592;10.184;2023-04-03T23:31:51;4.53;;;2.17;;
16015;SDS011;8112;53.592;10.184;2023-04-03T23:36:54;3.20;;;1.97;;
16015;SDS011;8112;53.592;10.184;2023-04-03T23:41:56;4.43;;;2.43;;
16015;SDS011;8112;53.592;10.184;2023-04-03T23:47:00;3.23;;;2.13;;
16015;SDS011;8112;53.592;10.184;2023-04-03T23:52:03;4.27;;;2.50;;
16015;SDS011;8112;53.592;10.184;2023-04-03T23:57:05;5.20;;;2.40;;
